sensor_id;sensor_type;location;lat;lon;timestamp;P1;durP1;ratioP1;P2;durP2;ratioP2
18076;SDS011;9165;45.714;11.362;2023-06-22T00:00:44;15.63;;;11.17;;
18076;SDS011;9165;45.714;11.362;2023-06-22T00:03:12;21.93;;;12.00;;
18076;SDS011;9165;45.714;11.362;2023-06-22T00:05:38;20.73;;;12.17;;
18076;SDS011;9165;45.714;11.362;2023-06-22T00:08:05;17.43;;;11.20;;
18076;SDS011;9165;45.714;11.362;2023-06-22T00:10:31;15.63;;;11.63;;
18076;SDS011;9165;45.714;11.362;2023-06-22T00:12:58;13.83;;;11.20;;
18076;SDS011;9165;45.714;11.362;2023-06-22T00:15:24;18.10;;;11.50;;
18076;SDS011;9165;45.714;11.362;2023-06-22T00:17:51;16.87;;;11.30;;
18076;SDS011;9165;45.714;11.362;2023-06-22T00:20:19;17.23;;;12.20;;
18076;SDS011;9165;45.714;11.362;2023-06-22T00:22:45;20.87;;;12.03;;
18076;SDS011;9165;45.714;11.362;2023-06-22T00:25:13;14.80;;;10.67;;
18076;SDS011;9165;45.714;11.362;2023-06-22T00:27:39;13.83;;;11.77;;
18076;SDS011;9165;45.714;11.362;2023-06-22T00:30:06;13.93;;;11.77;;
18076;SDS011;9165;45.714;11.362;2023-06-22T00:32:33;15.33;;;11.00;;
18076;SDS011;9165;45.714;11.362;2023-06-22T00:35:00;19.07;;;12.07;;
18076;SDS011;9165;45.714;11.362;2023-06-22T00:37:27;18.57;;;12.03;;
18076;SDS011;9165;45.714;11.362;2023-06-22T00:39:54;18.20;;;11.03;;
18076;SDS011;9165;45.714;11.362;2023-06-22T00:42:21;16.80;;;11.80;;
18076;SDS011;9165;45.714;11.362;2023-06-22T00:44:48;15.87;;;10.50;;
18076;SDS011;9165;45.714;11.362;2023-06-22T00:47:15;18.13;;;11.43;;
18076;SDS011;9165;45.714;11.362;2023-06-22T00:49:42;17.27;;;10.73;;
18076;SDS011;9165;45.714;11.362;2023-06-22T00:52:08;19.37;;;12.13;;
18076;SDS011;9165;45.714;11.362;2023-06-22T00:54:40;13.07;;;10.70;;
18076;SDS011;9165;45.714;11.362;2023-06-22T00:57:10;17.97;;;11.83;;
18076;SDS011;9165;45.714;11.362;2023-06-22T00:59:38;16.70;;;12.27;;
18076;SDS011;9165;45.714;11.362;2023-06-22T01:02:05;17.23;;;11.93;;
18076;SDS011;9165;45.714;11.362;2023-06-22T01:04:34;16.97;;;11.73;;
18076;SDS011;9165;45.714;11.362;2023-06-22T01:07:02;15.67;;;11.10;;
18076;SDS011;9165;45.714;11.362;2023-06-22T01:09:33;18.43;;;11.97;;
18076;SDS011;9165;45.714;11.362;2023-06-22T01:12:04;14.93;;;12.23;;
18076;SDS011;9165;45.714;11.362;2023-06-22T01:14:33;23.53;;;11.83;;
18076;SDS011;9165;45.714;11.362;2023-06-22T01:17:03;16.63;;;12.13;;
18076;SDS011;9165;45.714;11.362;2023-06-22T01:19:35;18.77;;;12.73;;
18076;SDS011;9165;45.714;11.362;2023-06-22T01:22:04;14.77;;;11.87;;
18076;SDS011;9165;45.714;11.362;2023-06-22T01:24:32;14.87;;;11.87;;
18076;SDS011;9165;45.714;11.362;2023-06-22T01:27:04;14.83;;;11.67;;
18076;SDS011;9165;45.714;11.362;2023-06-22T01:29:37;13.63;;;12.20;;
18076;SDS011;9165;45.714;11.362;2023-06-22T01:32:05;20.70;;;11.80;;
18076;SDS011;9165;45.714;11.362;2023-06-22T01:34:32;20.77;;;12.90;;
18076;SDS011;9165;45.714;11.362;2023-06-22T01:36:59;17.60;;;12.63;;
18076;SDS011;9165;45.714;11.362;2023-06-22T01:39:27;19.43;;;12.50;;
18076;SDS011;9165;45.714;11.362;2023-06-22T01:41:54;16.83;;;11.97;;
18076;SDS011;9165;45.714;11.362;2023-06-22T01:44:21;17.20;;;12.93;;
18076;SDS011;9165;45.714;11.362;2023-06-22T01:46:51;15.80;;;11.80;;
18076;SDS011;9165;45.714;11.362;2023-06-22T01:49:18;18.03;;;12.90;;
18076;SDS011;9165;45.714;11.362;2023-06-22T01:51:45;18.80;;;12.97;;
18076;SDS011;9165;45.714;11.362;2023-06-22T01:54:11;15.57;;;12.10;;
18076;SDS011;9165;45.714;11.362;2023-06-22T01:56:38;15.37;;;12.13;;
18076;SDS011;9165;45.714;11.362;2023-06-22T01:59:07;17.30;;;13.00;;
18076;SDS011;9165;45.714;11.362;2023-06-22T02:01:37;17.07;;;12.10;;
18076;SDS011;9165;45.714;11.362;2023-06-22T02:04:08;14.47;;;12.97;;
18076;SDS011;9165;45.714;11.362;2023-06-22T02:06:37;18.53;;;13.10;;
18076;SDS011;9165;45.714;11.362;2023-06-22T02:09:06;14.70;;;12.97;;
18076;SDS011;9165;45.714;11.362;2023-06-22T02:11:34;21.47;;;13.43;;
18076;SDS011;9165;45.714;11.362;2023-06-22T02:14:01;19.43;;;13.50;;
18076;SDS011;9165;45.714;11.362;2023-06-22T02:16:27;17.10;;;12.70;;
18076;SDS011;9165;45.714;11.362;2023-06-22T02:18:54;18.30;;;13.67;;
18076;SDS011;9165;45.714;11.362;2023-06-22T02:21:29;18.63;;;12.80;;
18076;SDS011;9165;45.714;11.362;2023-06-22T02:23:56;16.83;;;12.60;;
18076;SDS011;9165;45.714;11.362;2023-06-22T02:26:22;19.37;;;13.60;;
18076;SDS011;9165;45.714;11.362;2023-06-22T02:28:50;17.50;;;13.37;;
18076;SDS011;9165;45.714;11.362;2023-06-22T02:31:16;16.90;;;14.17;;
18076;SDS011;9165;45.714;11.362;2023-06-22T02:33:43;17.07;;;12.93;;
18076;SDS011;9165;45.714;11.362;2023-06-22T02:36:10;15.67;;;13.83;;
18076;SDS011;9165;45.714;11.362;2023-06-22T02:38:39;16.93;;;14.33;;
18076;SDS011;9165;45.714;11.362;2023-06-22T02:41:13;15.57;;;13.27;;
18076;SDS011;9165;45.714;11.362;2023-06-22T02:43:43;15.70;;;14.10;;
18076;SDS011;9165;45.714;11.362;2023-06-22T02:46:09;16.73;;;13.43;;
18076;SDS011;9165;45.714;11.362;2023-06-22T02:48:36;19.67;;;15.00;;
18076;SDS011;9165;45.714;11.362;2023-06-22T02:51:03;16.00;;;13.57;;
18076;SDS011;9165;45.714;11.362;2023-06-22T02:53:29;15.50;;;13.83;;
18076;SDS011;9165;45.714;11.362;2023-06-22T02:55:58;19.50;;;13.33;;
18076;SDS011;9165;45.714;11.362;2023-06-22T02:58:26;21.07;;;14.43;;
18076;SDS011;9165;45.714;11.362;2023-06-22T03:00:53;15.93;;;13.67;;
18076;SDS011;9165;45.714;11.362;2023-06-22T03:03:19;21.93;;;14.33;;
18076;SDS011;9165;45.714;11.362;2023-06-22T03:05:46;20.27;;;14.23;;
18076;SDS011;9165;45.714;11.362;2023-06-22T03:08:12;18.00;;;14.07;;
18076;SDS011;9165;45.714;11.362;2023-06-22T03:10:39;20.57;;;13.67;;
18076;SDS011;9165;45.714;11.362;2023-06-22T03:13:07;23.70;;;15.40;;
18076;SDS011;9165;45.714;11.362;2023-06-22T03:15:33;18.93;;;14.70;;
18076;SDS011;9165;45.714;11.362;2023-06-22T03:18:00;25.03;;;14.30;;
18076;SDS011;9165;45.714;11.362;2023-06-22T03:20:26;18.83;;;13.90;;
18076;SDS011;9165;45.714;11.362;2023-06-22T03:22:58;18.37;;;14.33;;
18076;SDS011;9165;45.714;11.362;2023-06-22T03:25:25;22.90;;;15.07;;
18076;SDS011;9165;45.714;11.362;2023-06-22T03:27:51;21.23;;;15.10;;
18076;SDS011;9165;45.714;11.362;2023-06-22T03:30:19;22.23;;;15.00;;
18076;SDS011;9165;45.714;11.362;2023-06-22T03:32:46;20.57;;;14.50;;
18076;SDS011;9165;45.714;11.362;2023-06-22T03:35:13;20.73;;;15.60;;
18076;SDS011;9165;45.714;11.362;2023-06-22T03:37:39;22.27;;;15.50;;
18076;SDS011;9165;45.714;11.362;2023-06-22T03:40:07;18.07;;;15.07;;
18076;SDS011;9165;45.714;11.362;2023-06-22T03:42:33;21.47;;;15.60;;
18076;SDS011;9165;45.714;11.362;2023-06-22T03:45:01;23.60;;;15.30;;
18076;SDS011;9165;45.714;11.362;2023-06-22T03:47:30;18.80;;;14.17;;
18076;SDS011;9165;45.714;11.362;2023-06-22T03:49:56;17.33;;;14.03;;
18076;SDS011;9165;45.714;11.362;2023-06-22T03:52:23;20.80;;;15.93;;
18076;SDS011;9165;45.714;11.362;2023-06-22T03:54:50;18.97;;;14.60;;
18076;SDS011;9165;45.714;11.362;2023-06-22T03:57:16;17.07;;;14.73;;
18076;SDS011;9165;45.714;11.362;2023-06-22T03:59:43;19.23;;;15.40;;
18076;SDS011;9165;45.714;11.362;2023-06-22T04:02:10;17.07;;;14.33;;
18076;SDS011;9165;45.714;11.362;2023-06-22T04:04:38;22.60;;;15.67;;
18076;SDS011;9165;45.714;11.362;2023-06-22T04:07:04;19.33;;;15.23;;
18076;SDS011;9165;45.714;11.362;2023-06-22T04:09:31;17.23;;;13.73;;
18076;SDS011;9165;45.714;11.362;2023-06-22T04:11:58;19.87;;;14.77;;
18076;SDS011;9165;45.714;11.362;2023-06-22T04:14:24;18.07;;;14.57;;
18076;SDS011;9165;45.714;11.362;2023-06-22T04:16:51;16.67;;;13.83;;
18076;SDS011;9165;45.714;11.362;2023-06-22T04:19:18;19.63;;;13.83;;
18076;SDS011;9165;45.714;11.362;2023-06-22T04:21:45;17.47;;;14.93;;
18076;SDS011;9165;45.714;11.362;2023-06-22T04:24:13;17.07;;;13.53;;
18076;SDS011;9165;45.714;11.362;2023-06-22T04:26:40;16.47;;;14.73;;
18076;SDS011;9165;45.714;11.362;2023-06-22T04:29:07;15.80;;;13.73;;
18076;SDS011;9165;45.714;11.362;2023-06-22T04:31:34;17.17;;;13.33;;
18076;SDS011;9165;45.714;11.362;2023-06-22T04:34:02;18.23;;;14.20;;
18076;SDS011;9165;45.714;11.362;2023-06-22T04:36:32;18.70;;;13.40;;
18076;SDS011;9165;45.714;11.362;2023-06-22T04:39:04;18.73;;;13.87;;
18076;SDS011;9165;45.714;11.362;2023-06-22T04:41:30;15.67;;;13.57;;
18076;SDS011;9165;45.714;11.362;2023-06-22T04:44:07;18.13;;;14.17;;
18076;SDS011;9165;45.714;11.362;2023-06-22T04:46:34;19.60;;;14.07;;
18076;SDS011;9165;45.714;11.362;2023-06-22T04:49:03;16.57;;;13.97;;
18076;SDS011;9165;45.714;11.362;2023-06-22T04:51:31;20.07;;;13.30;;
18076;SDS011;9165;45.714;11.362;2023-06-22T04:53:58;19.27;;;13.10;;
18076;SDS011;9165;45.714;11.362;2023-06-22T04:56:27;14.33;;;12.83;;
18076;SDS011;9165;45.714;11.362;2023-06-22T04:58:54;15.67;;;13.60;;
18076;SDS011;9165;45.714;11.362;2023-06-22T05:01:22;19.47;;;12.67;;
18076;SDS011;9165;45.714;11.362;2023-06-22T05:03:48;20.33;;;13.73;;
18076;SDS011;9165;45.714;11.362;2023-06-22T05:06:15;18.43;;;13.10;;
18076;SDS011;9165;45.714;11.362;2023-06-22T05:08:42;19.40;;;12.23;;
18076;SDS011;9165;45.714;11.362;2023-06-22T05:11:09;16.23;;;11.93;;
18076;SDS011;9165;45.714;11.362;2023-06-22T05:13:37;20.27;;;12.57;;
18076;SDS011;9165;45.714;11.362;2023-06-22T05:16:04;18.27;;;12.47;;
18076;SDS011;9165;45.714;11.362;2023-06-22T05:18:31;17.13;;;12.93;;
18076;SDS011;9165;45.714;11.362;2023-06-22T05:20:57;15.17;;;12.37;;
18076;SDS011;9165;45.714;11.362;2023-06-22T05:23:24;16.27;;;11.97;;
18076;SDS011;9165;45.714;11.362;2023-06-22T05:25:51;14.37;;;12.70;;
18076;SDS011;9165;45.714;11.362;2023-06-22T05:28:17;20.30;;;11.97;;
18076;SDS011;9165;45.714;11.362;2023-06-22T05:30:49;16.67;;;13.47;;
18076;SDS011;9165;45.714;11.362;2023-06-22T05:33:16;17.90;;;13.87;;
18076;SDS011;9165;45.714;11.362;2023-06-22T05:35:42;19.63;;;13.03;;
18076;SDS011;9165;45.714;11.362;2023-06-22T05:38:09;16.97;;;13.67;;
18076;SDS011;9165;45.714;11.362;2023-06-22T05:40:35;19.20;;;12.30;;
18076;SDS011;9165;45.714;11.362;2023-06-22T05:43:02;18.77;;;12.33;;
18076;SDS011;9165;45.714;11.362;2023-06-22T05:45:29;16.90;;;12.60;;
18076;SDS011;9165;45.714;11.362;2023-06-22T05:47:57;14.40;;;11.83;;
18076;SDS011;9165;45.714;11.362;2023-06-22T05:50:23;18.87;;;12.90;;
18076;SDS011;9165;45.714;11.362;2023-06-22T05:52:50;17.73;;;13.13;;
18076;SDS011;9165;45.714;11.362;2023-06-22T05:55:16;18.93;;;11.97;;
18076;SDS011;9165;45.714;11.362;2023-06-22T05:57:44;15.73;;;12.43;;
18076;SDS011;9165;45.714;11.362;2023-06-22T06:00:11;20.17;;;13.27;;
18076;SDS011;9165;45.714;11.362;2023-06-22T06:02:38;16.60;;;13.37;;
18076;SDS011;9165;45.714;11.362;2023-06-22T06:05:10;22.23;;;13.23;;
18076;SDS011;9165;45.714;11.362;2023-06-22T06:07:38;15.63;;;13.10;;
18076;SDS011;9165;45.714;11.362;2023-06-22T06:10:05;15.90;;;11.67;;
18076;SDS011;9165;45.714;11.362;2023-06-22T06:12:32;24.67;;;12.30;;
18076;SDS011;9165;45.714;11.362;2023-06-22T06:14:58;13.33;;;11.50;;
18076;SDS011;9165;45.714;11.362;2023-06-22T06:17:25;16.23;;;11.83;;
18076;SDS011;9165;45.714;11.362;2023-06-22T06:19:52;18.37;;;11.17;;
18076;SDS011;9165;45.714;11.362;2023-06-22T06:22:20;19.70;;;12.63;;
18076;SDS011;9165;45.714;11.362;2023-06-22T06:24:48;19.80;;;11.63;;
18076;SDS011;9165;45.714;11.362;2023-06-22T06:27:15;22.60;;;12.33;;
18076;SDS011;9165;45.714;11.362;2023-06-22T06:29:43;19.80;;;12.07;;
18076;SDS011;9165;45.714;11.362;2023-06-22T06:32:10;18.23;;;12.33;;
18076;SDS011;9165;45.714;11.362;2023-06-22T06:34:38;16.47;;;12.37;;
18076;SDS011;9165;45.714;11.362;2023-06-22T06:37:05;24.33;;;12.50;;
18076;SDS011;9165;45.714;11.362;2023-06-22T06:39:33;18.60;;;12.73;;
18076;SDS011;9165;45.714;11.362;2023-06-22T06:42:00;17.93;;;13.73;;
18076;SDS011;9165;45.714;11.362;2023-06-22T06:44:27;21.20;;;13.47;;
18076;SDS011;9165;45.714;11.362;2023-06-22T06:46:54;21.33;;;12.73;;
18076;SDS011;9165;45.714;11.362;2023-06-22T06:49:20;18.07;;;13.07;;
18076;SDS011;9165;45.714;11.362;2023-06-22T06:51:47;17.67;;;12.87;;
18076;SDS011;9165;45.714;11.362;2023-06-22T06:54:13;18.33;;;12.73;;
18076;SDS011;9165;45.714;11.362;2023-06-22T06:56:42;23.47;;;14.67;;
18076;SDS011;9165;45.714;11.362;2023-06-22T06:59:13;19.27;;;13.17;;
18076;SDS011;9165;45.714;11.362;2023-06-22T07:01:39;18.17;;;12.33;;
18076;SDS011;9165;45.714;11.362;2023-06-22T07:04:06;25.57;;;12.87;;
18076;SDS011;9165;45.714;11.362;2023-06-22T07:06:33;18.47;;;13.13;;
18076;SDS011;9165;45.714;11.362;2023-06-22T07:08:59;17.93;;;13.33;;
18076;SDS011;9165;45.714;11.362;2023-06-22T07:11:26;17.97;;;12.77;;
18076;SDS011;9165;45.714;11.362;2023-06-22T07:13:54;15.30;;;12.63;;
18076;SDS011;9165;45.714;11.362;2023-06-22T07:16:20;15.67;;;12.90;;
18076;SDS011;9165;45.714;11.362;2023-06-22T07:18:48;17.40;;;12.70;;
18076;SDS011;9165;45.714;11.362;2023-06-22T07:21:14;16.07;;;13.03;;
18076;SDS011;9165;45.714;11.362;2023-06-22T07:23:41;16.43;;;12.77;;
18076;SDS011;9165;45.714;11.362;2023-06-22T07:26:07;14.00;;;12.33;;
18076;SDS011;9165;45.714;11.362;2023-06-22T07:28:34;20.23;;;13.40;;
18076;SDS011;9165;45.714;11.362;2023-06-22T07:31:04;17.63;;;12.73;;
18076;SDS011;9165;45.714;11.362;2023-06-22T07:33:31;16.10;;;12.57;;
18076;SDS011;9165;45.714;11.362;2023-06-22T07:35:57;16.30;;;12.70;;
18076;SDS011;9165;45.714;11.362;2023-06-22T07:38:24;17.63;;;12.27;;
18076;SDS011;9165;45.714;11.362;2023-06-22T07:40:50;20.43;;;13.50;;
18076;SDS011;9165;45.714;11.362;2023-06-22T07:43:18;17.87;;;12.97;;
18076;SDS011;9165;45.714;11.362;2023-06-22T07:45:48;23.37;;;12.17;;
18076;SDS011;9165;45.714;11.362;2023-06-22T07:48:20;20.10;;;13.43;;
18076;SDS011;9165;45.714;11.362;2023-06-22T07:50:47;23.03;;;13.70;;
18076;SDS011;9165;45.714;11.362;2023-06-22T07:53:14;19.97;;;14.17;;
18076;SDS011;9165;45.714;11.362;2023-06-22T07:55:41;21.63;;;14.73;;
18076;SDS011;9165;45.714;11.362;2023-06-22T07:58:07;20.00;;;13.27;;
18076;SDS011;9165;45.714;11.362;2023-06-22T08:00:34;21.50;;;15.13;;
18076;SDS011;9165;45.714;11.362;2023-06-22T08:03:00;16.57;;;13.47;;
18076;SDS011;9165;45.714;11.362;2023-06-22T08:05:30;19.33;;;13.97;;
18076;SDS011;9165;45.714;11.362;2023-06-22T08:07:56;20.23;;;14.87;;
18076;SDS011;9165;45.714;11.362;2023-06-22T08:10:23;18.43;;;15.60;;
18076;SDS011;9165;45.714;11.362;2023-06-22T08:12:49;24.70;;;15.07;;
18076;SDS011;9165;45.714;11.362;2023-06-22T08:15:16;18.03;;;14.40;;
18076;SDS011;9165;45.714;11.362;2023-06-22T08:17:43;24.93;;;15.97;;
18076;SDS011;9165;45.714;11.362;2023-06-22T08:20:10;24.67;;;15.00;;
18076;SDS011;9165;45.714;11.362;2023-06-22T08:22:39;19.53;;;15.60;;
18076;SDS011;9165;45.714;11.362;2023-06-22T08:25:06;28.17;;;16.80;;
18076;SDS011;9165;45.714;11.362;2023-06-22T08:27:33;20.47;;;16.80;;
18076;SDS011;9165;45.714;11.362;2023-06-22T08:30:00;25.23;;;16.27;;
18076;SDS011;9165;45.714;11.362;2023-06-22T08:32:27;25.00;;;17.87;;
18076;SDS011;9165;45.714;11.362;2023-06-22T08:34:54;24.23;;;17.73;;
18076;SDS011;9165;45.714;11.362;2023-06-22T08:37:21;24.10;;;17.40;;
18076;SDS011;9165;45.714;11.362;2023-06-22T08:39:51;24.40;;;18.97;;
18076;SDS011;9165;45.714;11.362;2023-06-22T08:42:18;24.53;;;18.97;;
18076;SDS011;9165;45.714;11.362;2023-06-22T08:44:45;27.73;;;19.00;;
18076;SDS011;9165;45.714;11.362;2023-06-22T08:47:11;23.90;;;19.17;;
18076;SDS011;9165;45.714;11.362;2023-06-22T08:49:38;24.47;;;19.80;;
18076;SDS011;9165;45.714;11.362;2023-06-22T08:52:05;24.40;;;18.77;;
18076;SDS011;9165;45.714;11.362;2023-06-22T08:54:32;28.23;;;19.67;;
18076;SDS011;9165;45.714;11.362;2023-06-22T08:57:01;25.97;;;18.60;;
18076;SDS011;9165;45.714;11.362;2023-06-22T08:59:28;24.30;;;19.10;;
18076;SDS011;9165;45.714;11.362;2023-06-22T09:01:54;23.37;;;18.87;;
18076;SDS011;9165;45.714;11.362;2023-06-22T09:04:21;25.97;;;20.20;;
18076;SDS011;9165;45.714;11.362;2023-06-22T09:06:48;26.60;;;18.03;;
18076;SDS011;9165;45.714;11.362;2023-06-22T09:09:15;24.53;;;17.80;;
18076;SDS011;9165;45.714;11.362;2023-06-22T09:11:42;23.50;;;17.77;;
18076;SDS011;9165;45.714;11.362;2023-06-22T09:14:10;26.47;;;18.53;;
18076;SDS011;9165;45.714;11.362;2023-06-22T09:16:37;21.83;;;16.88;;
18076;SDS011;9165;45.714;11.362;2023-06-22T09:19:03;25.27;;;17.27;;
18076;SDS011;9165;45.714;11.362;2023-06-22T09:21:30;28.70;;;17.42;;
18076;SDS011;9165;45.714;11.362;2023-06-22T09:23:57;23.33;;;15.63;;
18076;SDS011;9165;45.714;11.362;2023-06-22T09:26:23;22.30;;;15.07;;
18076;SDS011;9165;45.714;11.362;2023-06-22T09:28:50;18.15;;;14.15;;
18076;SDS011;9165;45.714;11.362;2023-06-22T09:31:18;29.27;;;17.15;;
18076;SDS011;9165;45.714;11.362;2023-06-22T09:33:50;18.77;;;15.05;;
18076;SDS011;9165;45.714;11.362;2023-06-22T09:36:16;20.38;;;15.43;;
18076;SDS011;9165;45.714;11.362;2023-06-22T09:38:43;17.63;;;13.70;;
18076;SDS011;9165;45.714;11.362;2023-06-22T09:41:09;23.13;;;15.10;;
18076;SDS011;9165;45.714;11.362;2023-06-22T09:43:36;24.40;;;13.77;;
18076;SDS011;9165;45.714;11.362;2023-06-22T09:46:03;19.23;;;13.43;;
18076;SDS011;9165;45.714;11.362;2023-06-22T09:48:31;18.15;;;13.98;;
18076;SDS011;9165;45.714;11.362;2023-06-22T09:50:59;19.35;;;12.88;;
18076;SDS011;9165;45.714;11.362;2023-06-22T09:53:25;16.20;;;12.65;;
18076;SDS011;9165;45.714;11.362;2023-06-22T09:55:52;18.92;;;12.50;;
18076;SDS011;9165;45.714;11.362;2023-06-22T09:58:18;18.90;;;11.85;;
18076;SDS011;9165;45.714;11.362;2023-06-22T10:00:45;18.85;;;13.43;;
18076;SDS011;9165;45.714;11.362;2023-06-22T10:03:12;14.20;;;11.60;;
18076;SDS011;9165;45.714;11.362;2023-06-22T10:05:40;17.70;;;13.13;;
18076;SDS011;9165;45.714;11.362;2023-06-22T10:08:06;19.27;;;11.85;;
18076;SDS011;9165;45.714;11.362;2023-06-22T10:10:35;14.40;;;11.00;;
18076;SDS011;9165;45.714;11.362;2023-06-22T10:13:02;17.10;;;11.00;;
18076;SDS011;9165;45.714;11.362;2023-06-22T10:15:29;19.38;;;12.43;;
18076;SDS011;9165;45.714;11.362;2023-06-22T10:17:56;20.05;;;12.75;;
18076;SDS011;9165;45.714;11.362;2023-06-22T10:20:22;14.18;;;11.63;;
18076;SDS011;9165;45.714;11.362;2023-06-22T10:22:52;16.40;;;12.98;;
18076;SDS011;9165;45.714;11.362;2023-06-22T10:25:18;16.95;;;12.93;;
18076;SDS011;9165;45.714;11.362;2023-06-22T10:27:45;19.85;;;12.30;;
18076;SDS011;9165;45.714;11.362;2023-06-22T10:30:12;21.70;;;12.52;;
18076;SDS011;9165;45.714;11.362;2023-06-22T10:32:39;23.08;;;12.57;;
18076;SDS011;9165;45.714;11.362;2023-06-22T10:35:06;16.95;;;12.07;;
18076;SDS011;9165;45.714;11.362;2023-06-22T10:37:32;24.88;;;12.55;;
18076;SDS011;9165;45.714;11.362;2023-06-22T10:40:00;20.30;;;13.07;;
18076;SDS011;9165;45.714;11.362;2023-06-22T10:42:27;16.35;;;12.73;;
18076;SDS011;9165;45.714;11.362;2023-06-22T10:44:54;17.42;;;12.45;;
18076;SDS011;9165;45.714;11.362;2023-06-22T10:47:20;16.05;;;13.00;;
18076;SDS011;9165;45.714;11.362;2023-06-22T10:49:47;14.15;;;11.75;;
18076;SDS011;9165;45.714;11.362;2023-06-22T10:52:13;17.42;;;11.75;;
18076;SDS011;9165;45.714;11.362;2023-06-22T10:54:40;14.15;;;12.15;;
18076;SDS011;9165;45.714;11.362;2023-06-22T10:57:08;21.55;;;12.57;;
18076;SDS011;9165;45.714;11.362;2023-06-22T10:59:35;18.02;;;12.77;;
18076;SDS011;9165;45.714;11.362;2023-06-22T11:02:02;22.33;;;12.70;;
18076;SDS011;9165;45.714;11.362;2023-06-22T11:04:28;19.35;;;12.02;;
18076;SDS011;9165;45.714;11.362;2023-06-22T11:06:55;18.88;;;12.85;;
18076;SDS011;9165;45.714;11.362;2023-06-22T11:09:22;16.67;;;11.30;;
18076;SDS011;9165;45.714;11.362;2023-06-22T11:11:49;16.30;;;12.10;;
18076;SDS011;9165;45.714;11.362;2023-06-22T11:14:17;17.10;;;11.95;;
18076;SDS011;9165;45.714;11.362;2023-06-22T11:16:44;16.63;;;12.13;;
18076;SDS011;9165;45.714;11.362;2023-06-22T11:19:11;13.82;;;11.77;;
18076;SDS011;9165;45.714;11.362;2023-06-22T11:21:38;16.45;;;11.75;;
18076;SDS011;9165;45.714;11.362;2023-06-22T11:24:05;16.08;;;11.77;;
18076;SDS011;9165;45.714;11.362;2023-06-22T11:26:32;13.65;;;11.55;;
18076;SDS011;9165;45.714;11.362;2023-06-22T11:28:59;15.38;;;11.63;;
18076;SDS011;9165;45.714;11.362;2023-06-22T11:31:27;15.68;;;12.07;;
18076;SDS011;9165;45.714;11.362;2023-06-22T11:33:54;20.90;;;12.30;;
18076;SDS011;9165;45.714;11.362;2023-06-22T11:36:20;15.70;;;11.88;;
18076;SDS011;9165;45.714;11.362;2023-06-22T11:38:47;25.27;;;12.43;;
18076;SDS011;9165;45.714;11.362;2023-06-22T11:41:13;14.82;;;11.77;;
18076;SDS011;9165;45.714;11.362;2023-06-22T11:43:40;16.80;;;11.63;;
18076;SDS011;9165;45.714;11.362;2023-06-22T11:46:06;15.38;;;11.90;;
18076;SDS011;9165;45.714;11.362;2023-06-22T11:48:34;13.85;;;11.32;;
18076;SDS011;9165;45.714;11.362;2023-06-22T11:51:01;17.58;;;11.68;;
18076;SDS011;9165;45.714;11.362;2023-06-22T11:53:28;20.75;;;11.40;;
18076;SDS011;9165;45.714;11.362;2023-06-22T11:55:55;25.50;;;12.00;;
18076;SDS011;9165;45.714;11.362;2023-06-22T11:58:22;23.40;;;10.75;;
18076;SDS011;9165;45.714;11.362;2023-06-22T12:00:48;21.63;;;12.45;;
18076;SDS011;9165;45.714;11.362;2023-06-22T12:03:15;16.10;;;10.57;;
18076;SDS011;9165;45.714;11.362;2023-06-22T12:05:43;20.75;;;12.77;;
18076;SDS011;9165;45.714;11.362;2023-06-22T12:08:10;19.00;;;12.38;;
18076;SDS011;9165;45.714;11.362;2023-06-22T12:10:37;21.02;;;11.13;;
18076;SDS011;9165;45.714;11.362;2023-06-22T12:13:03;34.38;;;12.40;;
18076;SDS011;9165;45.714;11.362;2023-06-22T12:15:30;19.20;;;11.07;;
18076;SDS011;9165;45.714;11.362;2023-06-22T12:17:57;16.05;;;11.13;;
18076;SDS011;9165;45.714;11.362;2023-06-22T12:20:23;23.83;;;11.98;;
18076;SDS011;9165;45.714;11.362;2023-06-22T12:22:51;18.80;;;10.68;;
18076;SDS011;9165;45.714;11.362;2023-06-22T12:25:19;15.82;;;11.20;;
18076;SDS011;9165;45.714;11.362;2023-06-22T12:27:45;12.75;;;10.48;;
18076;SDS011;9165;45.714;11.362;2023-06-22T12:30:12;17.05;;;10.80;;
18076;SDS011;9165;45.714;11.362;2023-06-22T12:32:38;28.45;;;10.77;;
18076;SDS011;9165;45.714;11.362;2023-06-22T12:35:05;24.63;;;11.25;;
18076;SDS011;9165;45.714;11.362;2023-06-22T12:37:37;21.13;;;10.75;;
18076;SDS011;9165;45.714;11.362;2023-06-22T12:40:05;23.50;;;12.38;;
18076;SDS011;9165;45.714;11.362;2023-06-22T12:42:32;14.57;;;11.20;;
18076;SDS011;9165;45.714;11.362;2023-06-22T12:44:59;27.48;;;15.00;;
18076;SDS011;9165;45.714;11.362;2023-06-22T12:47:25;17.20;;;11.32;;
18076;SDS011;9165;45.714;11.362;2023-06-22T12:49:52;15.93;;;10.50;;
18076;SDS011;9165;45.714;11.362;2023-06-22T12:52:18;16.80;;;11.70;;
18076;SDS011;9165;45.714;11.362;2023-06-22T12:54:45;15.65;;;11.18;;
18076;SDS011;9165;45.714;11.362;2023-06-22T12:57:13;16.75;;;11.13;;
18076;SDS011;9165;45.714;11.362;2023-06-22T12:59:39;13.65;;;10.68;;
18076;SDS011;9165;45.714;11.362;2023-06-22T13:02:06;26.13;;;12.07;;
18076;SDS011;9165;45.714;11.362;2023-06-22T13:04:32;16.77;;;10.73;;
18076;SDS011;9165;45.714;11.362;2023-06-22T13:06:59;13.27;;;9.80;;
18076;SDS011;9165;45.714;11.362;2023-06-22T13:09:26;17.30;;;11.07;;
18076;SDS011;9165;45.714;11.362;2023-06-22T13:11:53;12.90;;;10.02;;
18076;SDS011;9165;45.714;11.362;2023-06-22T13:14:21;15.70;;;9.88;;
18076;SDS011;9165;45.714;11.362;2023-06-22T13:16:47;14.38;;;10.63;;
18076;SDS011;9165;45.714;11.362;2023-06-22T13:19:14;24.08;;;13.30;;
18076;SDS011;9165;45.714;11.362;2023-06-22T13:21:41;43.22;;;13.82;;
18076;SDS011;9165;45.714;11.362;2023-06-22T13:24:07;31.02;;;10.40;;
18076;SDS011;9165;45.714;11.362;2023-06-22T13:26:34;30.27;;;11.63;;
18076;SDS011;9165;45.714;11.362;2023-06-22T13:29:00;14.40;;;10.65;;
18076;SDS011;9165;45.714;11.362;2023-06-22T13:31:28;52.88;;;19.52;;
18076;SDS011;9165;45.714;11.362;2023-06-22T13:33:55;14.15;;;10.80;;
18076;SDS011;9165;45.714;11.362;2023-06-22T13:36:21;18.65;;;12.80;;
18076;SDS011;9165;45.714;11.362;2023-06-22T13:38:49;18.75;;;9.32;;
18076;SDS011;9165;45.714;11.362;2023-06-22T13:41:15;16.48;;;10.55;;
18076;SDS011;9165;45.714;11.362;2023-06-22T13:43:42;18.88;;;10.55;;
18076;SDS011;9165;45.714;11.362;2023-06-22T13:46:08;19.92;;;10.48;;
18076;SDS011;9165;45.714;11.362;2023-06-22T13:48:36;16.80;;;10.07;;
18076;SDS011;9165;45.714;11.362;2023-06-22T13:51:03;19.95;;;10.90;;
18076;SDS011;9165;45.714;11.362;2023-06-22T13:53:29;14.32;;;10.18;;
18076;SDS011;9165;45.714;11.362;2023-06-22T13:55:56;17.45;;;9.95;;
18076;SDS011;9165;45.714;11.362;2023-06-22T13:58:22;18.17;;;10.55;;
18076;SDS011;9165;45.714;11.362;2023-06-22T14:00:49;13.82;;;9.68;;
18076;SDS011;9165;45.714;11.362;2023-06-22T14:03:16;17.33;;;10.52;;
18076;SDS011;9165;45.714;11.362;2023-06-22T14:05:44;18.08;;;9.75;;
18076;SDS011;9165;45.714;11.362;2023-06-22T14:08:11;19.00;;;9.57;;
18076;SDS011;9165;45.714;11.362;2023-06-22T14:10:38;33.92;;;10.65;;
18076;SDS011;9165;45.714;11.362;2023-06-22T14:13:04;16.17;;;10.13;;
18076;SDS011;9165;45.714;11.362;2023-06-22T14:15:32;17.58;;;9.68;;
18076;SDS011;9165;45.714;11.362;2023-06-22T14:17:58;18.05;;;10.35;;
18076;SDS011;9165;45.714;11.362;2023-06-22T14:20:25;23.42;;;10.43;;